Time;durP1;ratioP1;P1;durP2;ratioP2;P2;SDS_P1;SDS_P2;PMS_P1;PMS_P2;Temp;Humidity;BMP_temperature;BMP_pressure;BME280_temperature;BME280_humidity;BME280_pressure;Samples;Min_cycle;Max_cycle;Signal;HPM_P1;HPM_P2
2022/02/02 00:01:01;;;;;;;4.17;2.33;;;8.10;99.90;;;;;;5079923;28;20515;-63
2022/02/02 00:03:28;;;;;;;4.33;2.47;;;8.10;99.90;;;;;;5080450;28;21047;-63
2022/02/02 00:06:04;;;;;;;4.40;2.87;;;8.20;99.90;;;;;;5080129;28;21144;-63
2022/02/02 00:08:36;;;;;;;7.97;3.53;;;8.10;99.90;;;;;;5079990;28;20462;-63
2022/02/02 00:14:00;;;;;;;5.50;3.73;;;8.10;99.90;;;;;;5080354;28;20988;-64
2022/02/02 00:16:46;;;;;;;8.43;3.60;;;8.10;99.90;;;;;;5080038;28;20660;-64
2022/02/02 00:19:20;;;;;;;5.87;3.40;;;8.10;99.90;;;;;;5079828;28;20465;-63
2022/02/02 00:21:52;;;;;;;5.27;3.43;;;8.10;99.90;;;;;;5081224;28;20438;-63
2022/02/02 00:24:26;;;;;;;6.73;3.13;;;8.10;99.90;;;;;;5079302;28;20459;-63
2022/02/02 00:26:57;;;;;;;5.50;2.80;;;8.10;99.90;;;;;;5078165;28;20447;-64
2022/02/02 00:29:31;;;;;;;6.10;2.43;;;8.10;99.90;;;;;;5077468;28;20451;-64
2022/02/02 00:32:06;;;;;;;4.37;2.03;;;8.10;99.90;;;;;;5077300;28;20497;-64
2022/02/02 00:34:33;;;;;;;4.43;2.30;;;8.20;99.90;;;;;;5077290;28;20502;-64
2022/02/02 00:37:00;;;;;;;5.03;2.60;;;8.10;99.90;;;;;;5077407;28;20836;-64
2022/02/02 00:39:29;;;;;;;6.73;2.30;;;8.20;99.90;;;;;;5077216;28;20458;-64
2022/02/02 00:41:57;;;;;;;6.27;2.40;;;8.20;99.90;;;;;;5077225;28;20499;-63
2022/02/02 00:44:25;;;;;;;5.83;2.07;;;8.20;99.90;;;;;;5077257;28;20468;-64
2022/02/02 00:46:52;;;;;;;3.40;1.60;;;8.20;99.90;;;;;;5077404;28;20888;-64
2022/02/02 00:49:20;;;;;;;3.17;2.77;;;8.20;99.90;;;;;;5076967;28;20452;-62
2022/02/02 00:51:50;;;;;;;6.33;3.00;;;8.20;99.90;;;;;;5076439;28;20518;-63
2022/02/02 00:54:18;;;;;;;5.20;2.57;;;8.20;99.90;;;;;;5077381;28;20502;-64
2022/02/02 00:56:45;;;;;;;7.13;2.67;;;8.10;99.90;;;;;;5077305;28;20547;-63
2022/02/02 00:59:13;;;;;;;4.40;2.27;;;8.10;99.90;;;;;;5077267;28;20450;-64
2022/02/02 01:01:40;;;;;;;6.80;3.07;;;8.10;99.90;;;;;;5077535;28;20483;-63
2022/02/02 01:04:07;;;;;;;4.50;2.70;;;8.00;99.90;;;;;;5076967;28;20466;-63
2022/02/02 01:06:39;;;;;;;3.70;2.67;;;8.00;99.90;;;;;;5076724;28;20459;-63
2022/02/02 01:09:14;;;;;;;4.80;2.40;;;8.10;99.90;;;;;;5076806;28;20448;-62
2022/02/02 01:12:07;;;;;;;4.73;2.43;;;8.10;99.90;;;;;;5076645;28;20486;-63
2022/02/02 01:17:58;;;;;;;3.83;2.50;;;8.10;99.90;;;;;;5076905;28;20416;-64
2022/02/02 01:20:37;;;;;;;9.07;2.67;;;8.10;99.90;;;;;;5077157;28;20447;-64
2022/02/02 01:28:44;;;;;;;6.03;2.50;;;8.00;99.90;;;;;;5075067;28;20432;-63
2022/02/02 01:31:14;;;;;;;4.40;2.60;;;8.00;99.90;;;;;;5076074;28;20491;-63
2022/02/02 01:33:41;;;;;;;6.30;3.10;;;8.00;99.90;;;;;;5076139;28;20499;-63
2022/02/02 01:36:09;;;;;;;6.67;3.30;;;8.00;99.90;;;;;;5076181;28;20455;-64
2022/02/02 01:38:37;;;;;;;4.20;2.23;;;8.00;99.90;;;;;;5076428;28;20451;-64
2022/02/02 01:41:08;;;;;;;6.23;3.00;;;8.00;99.90;;;;;;5076903;28;20713;-64
2022/02/02 01:43:39;;;;;;;4.63;3.00;;;8.00;99.90;;;;;;5076412;28;20483;-64
2022/02/02 01:46:10;;;;;;;6.60;3.77;;;8.00;99.90;;;;;;5077202;28;20714;-64
2022/02/02 01:48:43;;;;;;;3.87;3.07;;;7.90;99.90;;;;;;5076403;28;20482;-63
2022/02/02 01:51:30;;;;;;;7.57;1.90;;;7.90;99.90;;;;;;5076533;28;20447;-63
2022/02/02 01:54:03;;;;;;;5.50;2.50;;;7.70;99.90;;;;;;5076960;28;20480;-63
2022/02/02 01:56:30;;;;;;;5.37;2.03;;;7.30;99.90;;;;;;5076909;28;20439;-64
2022/02/02 01:59:11;;;;;;;5.27;2.13;;;7.10;99.90;;;;;;5076460;28;20542;-63
2022/02/02 02:01:38;;;;;;;4.37;2.47;;;7.00;99.90;;;;;;5076372;28;20474;-63
2022/02/02 02:04:05;;;;;;;5.27;1.90;;;6.90;99.90;;;;;;5076727;28;20459;-63
2022/02/02 02:06:32;;;;;;;5.43;2.30;;;6.80;99.90;;;;;;5077324;28;20523;-63
2022/02/02 02:09:00;;;;;;;6.07;1.80;;;6.80;99.90;;;;;;5077715;28;20497;-64
2022/02/02 02:11:27;;;;;;;3.33;2.33;;;6.80;99.90;;;;;;5077054;28;20518;-64
2022/02/02 02:16:37;;;;;;;5.63;2.03;;;6.70;99.90;;;;;;5078973;28;20431;-63
2022/02/02 02:19:04;;;;;;;3.00;2.03;;;6.50;99.90;;;;;;5082030;28;20470;-63
2022/02/02 02:21:31;;;;;;;9.73;3.00;;;6.30;99.90;;;;;;5079190;28;20941;-63
2022/02/02 02:24:00;;;;;;;5.77;2.20;;;6.10;99.90;;;;;;5078569;28;20472;-63
2022/02/02 02:26:29;;;;;;;5.50;1.93;;;6.00;99.90;;;;;;5077732;28;21009;-63
2022/02/02 02:32:09;;;;;;;4.63;2.10;;;5.90;99.90;;;;;;5073100;28;20554;-62
2022/02/02 02:34:54;;;;;;;4.20;2.33;;;5.90;99.90;;;;;;5074891;28;20529;-63
2022/02/02 02:37:41;;;;;;;5.50;3.10;;;5.90;99.90;;;;;;5076028;28;20444;-63
2022/02/02 02:40:23;;;;;;;6.80;2.87;;;5.90;99.90;;;;;;5076022;28;20452;-63
2022/02/02 02:56:38;;;;;;;9.30;6.27;;;6.30;99.90;;;;;;5075070;28;20423;-62
2022/02/02 02:59:07;;;;;;;9.27;6.73;;;6.50;99.90;;;;;;5074946;28;20460;-62
2022/02/02 03:02:05;;;;;;;12.63;6.43;;;6.50;99.90;;;;;;5074771;28;21020;-61
2022/02/02 03:32:15;;;;;;;12.87;5.43;;;7.30;99.90;;;;;;5075170;28;20625;-63
2022/02/02 03:34:59;;;;;;;10.27;6.13;;;7.30;99.90;;;;;;5074906;28;20502;-63
2022/02/02 03:51:36;;;;;;;10.40;4.47;;;7.40;99.90;;;;;;5071726;28;20430;-63
2022/02/02 03:57:25;;;;;;;8.37;3.90;;;7.40;99.90;;;;;;5069238;28;20855;-62
2022/02/02 04:00:18;;;;;;;6.10;3.27;;;7.30;99.90;;;;;;5069302;28;20457;-62
2022/02/02 04:03:05;;;;;;;6.70;3.77;;;7.40;99.90;;;;;;5074479;28;20471;-63
2022/02/02 04:05:38;;;;;;;7.97;3.87;;;7.40;99.90;;;;;;5075168;28;20481;-63
2022/02/02 04:08:21;;;;;;;8.47;4.70;;;7.40;99.90;;;;;;5075184;28;20538;-62
2022/02/02 04:10:48;;;;;;;13.63;4.17;;;7.40;99.90;;;;;;5075212;28;20483;-62
2022/02/02 04:13:23;;;;;;;8.30;3.67;;;7.30;99.90;;;;;;5075756;28;20479;-62
2022/02/02 04:38:03;;;;;;;9.67;3.53;;;7.70;99.90;;;;;;5074606;28;20427;-62
2022/02/02 04:51:51;;;;;;;7.87;3.70;;;7.70;99.90;;;;;;5073971;28;20465;-63
2022/02/02 04:54:28;;;;;;;5.80;4.13;;;7.80;99.90;;;;;;5074138;28;20529;-63
2022/02/02 04:59:43;;;;;;;8.53;3.53;;;7.80;99.90;;;;;;5072923;28;20432;-64
2022/02/02 05:03:05;;;;;;;6.27;3.27;;;7.80;99.90;;;;;;5073450;28;20892;-64
2022/02/02 05:08:20;;;;;;;9.50;3.63;;;7.70;99.90;;;;;;5070542;28;20459;-64
2022/02/02 05:11:00;;;;;;;5.87;3.33;;;7.70;99.90;;;;;;5071429;28;20513;-64
2022/02/02 05:16:23;;;;;;;18.63;4.20;;;7.70;99.90;;;;;;5072552;28;20412;-63
2022/02/02 05:19:25;;;;;;;12.50;3.80;;;7.70;99.90;;;;;;5072680;28;20902;-64
2022/02/02 05:22:39;;;;;;;13.90;3.93;;;7.70;99.90;;;;;;5072234;28;20549;-64
2022/02/02 05:50:11;;;;;;;9.33;3.40;;;7.80;99.90;;;;;;5065528;28;20430;-63
2022/02/02 05:52:38;;;;;;;12.53;3.10;;;7.70;99.90;;;;;;5063566;28;20471;-64
2022/02/02 05:55:06;;;;;;;6.03;3.00;;;7.60;99.90;;;;;;5068574;28;21007;-63
2022/02/02 05:57:39;;;;;;;8.07;3.37;;;7.60;99.90;;;;;;5068867;28;20840;-64
2022/02/02 06:00:08;;;;;;;5.80;2.87;;;7.60;99.90;;;;;;5067660;28;20455;-64
2022/02/02 06:02:39;;;;;;;7.70;3.63;;;7.60;99.90;;;;;;5065662;28;20533;-64
2022/02/02 06:05:08;;;;;;;6.63;3.60;;;7.70;99.90;;;;;;5072472;28;20460;-64
2022/02/02 06:07:37;;;;;;;7.60;3.40;;;7.60;99.90;;;;;;5063964;28;20470;-64
2022/02/02 06:10:06;;;;;;;9.60;3.07;;;7.70;99.90;;;;;;5063441;28;20448;-63
2022/02/02 06:12:34;;;;;;;7.77;2.93;;;7.70;99.90;;;;;;5067315;28;20487;-64
2022/02/02 06:15:08;;;;;;;10.70;3.73;;;7.70;99.90;;;;;;5067022;28;20440;-64
2022/02/02 06:17:39;;;;;;;5.47;3.27;;;7.80;99.90;;;;;;5071626;28;20461;-64
2022/02/02 06:20:07;;;;;;;9.30;4.20;;;7.80;99.90;;;;;;5071360;28;20450;-64
2022/02/02 06:22:40;;;;;;;9.87;3.67;;;7.90;99.90;;;;;;5069646;28;21166;-65
2022/02/02 06:25:14;;;;;;;7.57;4.47;;;8.00;99.90;;;;;;5070838;28;20448;-63
2022/02/02 06:27:47;;;;;;;7.67;3.30;;;8.00;99.90;;;;;;5070958;28;20446;-63
2022/02/02 06:30:14;;;;;;;9.93;3.30;;;7.90;99.90;;;;;;5072484;28;20448;-63
2022/02/02 06:32:47;;;;;;;11.03;4.30;;;8.00;99.90;;;;;;5072813;28;20479;-64
2022/02/02 06:35:15;;;;;;;8.23;3.83;;;8.00;99.90;;;;;;5073702;28;20807;-63
2022/02/02 06:37:43;;;;;;;7.43;2.90;;;8.00;99.90;;;;;;5074433;28;20458;-63
2022/02/02 06:40:11;;;;;;;9.73;2.87;;;8.00;99.90;;;;;;5074289;28;20451;-63
2022/02/02 06:42:39;;;;;;;8.17;3.60;;;7.90;99.90;;;;;;5074355;28;20513;-64
2022/02/02 06:45:09;;;;;;;14.13;4.00;;;7.90;99.90;;;;;;5072959;28;20459;-63
2022/02/02 06:47:37;;;;;;;10.63;3.17;;;7.90;99.90;;;;;;5074616;28;20867;-64
2022/02/02 06:50:09;;;;;;;9.10;3.73;;;7.90;99.90;;;;;;5074448;28;20451;-63
2022/02/02 06:52:43;;;;;;;10.37;4.10;;;8.00;99.90;;;;;;5074201;28;20472;-64
2022/02/02 06:55:23;;;;;;;9.43;3.83;;;8.00;99.90;;;;;;5073711;28;20546;-63
2022/02/02 06:58:07;;;;;;;9.03;3.67;;;8.00;99.90;;;;;;5072361;28;20456;-63
2022/02/02 07:00:47;;;;;;;14.53;3.67;;;8.00;99.90;;;;;;5071310;28;20992;-63
2022/02/02 07:03:26;;;;;;;8.30;3.23;;;8.00;99.90;;;;;;5071814;28;20574;-63
2022/02/02 07:06:07;;;;;;;12.00;3.30;;;8.00;99.90;;;;;;5071565;28;20463;-62
2022/02/02 07:08:46;;;;;;;8.70;4.10;;;8.00;99.90;;;;;;5071017;28;20448;-63
2022/02/02 07:11:28;;;;;;;10.13;3.73;;;8.00;99.90;;;;;;5070858;28;20463;-63
2022/02/02 07:14:05;;;;;;;11.80;4.77;;;7.90;99.90;;;;;;5071016;28;20572;-63
2022/02/02 07:16:46;;;;;;;11.60;4.63;;;7.90;99.90;;;;;;5071114;28;20854;-62
2022/02/02 07:19:24;;;;;;;11.93;4.50;;;8.00;99.90;;;;;;5071597;28;20533;-63
2022/02/02 07:25:01;;;;;;;9.67;3.97;;;8.00;99.90;;;;;;5060123;28;20459;-63
2022/02/02 07:27:41;;;;;;;8.33;3.40;;;8.00;99.90;;;;;;5071236;28;20451;-62
2022/02/02 07:30:19;;;;;;;7.20;4.37;;;8.00;99.90;;;;;;5071853;28;21085;-63
2022/02/02 07:32:55;;;;;;;12.13;5.57;;;8.00;99.90;;;;;;5071548;28;20487;-63
2022/02/02 07:35:33;;;;;;;9.03;3.80;;;8.10;99.90;;;;;;5075113;28;20450;-63
2022/02/02 07:38:12;;;;;;;9.10;3.80;;;8.10;99.90;;;;;;5076124;28;20584;-62
2022/02/02 07:40:44;;;;;;;9.13;3.97;;;8.10;99.90;;;;;;5075739;28;20446;-63
2022/02/02 07:43:20;;;;;;;11.70;3.83;;;8.10;99.90;;;;;;5075389;28;20902;-63
2022/02/02 07:45:51;;;;;;;8.73;3.33;;;8.10;99.90;;;;;;5075602;28;20512;-63
2022/02/02 07:48:19;;;;;;;11.23;3.50;;;8.20;99.90;;;;;;5080259;28;21064;-63
2022/02/02 07:50:49;;;;;;;9.10;3.50;;;8.00;99.90;;;;;;5080897;28;20447;-63
2022/02/02 07:53:22;;;;;;;15.47;4.50;;;7.70;99.90;;;;;;5080973;28;20523;-64
2022/02/02 07:55:49;;;;;;;15.13;4.67;;;7.60;99.90;;;;;;5080782;28;20901;-62
2022/02/02 07:58:22;;;;;;;13.07;5.40;;;7.50;99.90;;;;;;5080236;28;20522;-63
2022/02/02 08:00:49;;;;;;;12.80;4.50;;;7.40;99.90;;;;;;5075506;28;20515;-63
2022/02/02 08:03:16;;;;;;;12.77;5.80;;;7.40;99.90;;;;;;5074927;28;20467;-63
2022/02/02 08:05:46;;;;;;;14.90;5.00;;;7.40;99.90;;;;;;5074769;28;20562;-63
2022/02/02 08:08:27;;;;;;;12.33;5.03;;;7.50;99.90;;;;;;5075656;28;20443;-63
2022/02/02 08:10:55;;;;;;;11.63;4.67;;;7.60;99.90;;;;;;5075509;28;20992;-63
2022/02/02 08:13:23;;;;;;;11.97;4.67;;;7.60;99.90;;;;;;5075932;28;20483;-63
2022/02/02 08:15:58;;;;;;;8.93;4.60;;;7.70;99.90;;;;;;5076116;28;20451;-62
2022/02/02 08:18:25;;;;;;;13.57;4.90;;;7.70;99.90;;;;;;5076831;28;20451;-62
2022/02/02 08:20:53;;;;;;;10.43;4.63;;;7.70;99.90;;;;;;5074383;28;20440;-63
2022/02/02 08:23:20;;;;;;;10.60;4.50;;;7.70;99.90;;;;;;5074802;28;20525;-63
2022/02/02 08:25:47;;;;;;;15.40;5.27;;;7.80;99.90;;;;;;5075816;28;20443;-64
2022/02/02 08:28:17;;;;;;;9.00;4.10;;;7.80;99.90;;;;;;5076933;28;20439;-63
2022/02/02 08:30:45;;;;;;;19.43;4.37;;;7.70;99.90;;;;;;5076989;28;20451;-64
2022/02/02 08:33:18;;;;;;;9.47;4.70;;;7.80;99.90;;;;;;5077324;28;20495;-63
2022/02/02 08:35:49;;;;;;;11.57;3.63;;;7.80;99.90;;;;;;5077384;28;20462;-62
2022/02/02 08:38:31;;;;;;;9.60;4.17;;;7.90;99.90;;;;;;5077448;28;20458;-64
2022/02/02 08:41:01;;;;;;;9.67;3.90;;;8.00;99.90;;;;;;5077185;28;20455;-63
2022/02/02 08:43:33;;;;;;;8.90;4.40;;;8.00;99.90;;;;;;5077412;28;20470;-64
2022/02/02 08:46:05;;;;;;;16.43;4.07;;;8.10;99.90;;;;;;5077139;28;20494;-64
2022/02/02 08:48:32;;;;;;;11.33;5.27;;;8.20;99.90;;;;;;5078375;28;20816;-64
2022/02/02 08:51:03;;;;;;;13.67;4.80;;;8.20;99.90;;;;;;5076538;28;20459;-64
2022/02/02 08:53:39;;;;;;;10.60;4.30;;;8.30;99.90;;;;;;5079097;28;20498;-63
2022/02/02 08:56:18;;;;;;;10.47;4.30;;;8.30;99.90;;;;;;5077776;28;20451;-63
2022/02/02 08:58:47;;;;;;;13.30;4.10;;;8.30;99.90;;;;;;5077625;28;20475;-64
2022/02/02 09:01:21;;;;;;;7.40;3.57;;;8.30;99.90;;;;;;5077176;28;20451;-64
2022/02/02 09:06:32;;;;;;;10.20;4.20;;;8.20;99.90;;;;;;5078453;28;20935;-64
2022/02/02 09:09:09;;;;;;;11.70;4.07;;;8.20;99.90;;;;;;5078473;28;20450;-63
2022/02/02 09:25:34;;;;;;;18.03;4.10;;;8.40;99.90;;;;;;5078937;28;20610;-64
2022/02/02 09:33:53;;;;;;;15.57;5.20;;;8.70;99.90;;;;;;5078852;28;20557;-63
2022/02/02 09:36:23;;;;;;;18.03;4.83;;;8.70;99.90;;;;;;5078613;28;20436;-64
2022/02/02 09:38:51;;;;;;;13.63;5.07;;;8.60;99.90;;;;;;5077608;28;20500;-64
2022/02/02 09:41:39;;;;;;;11.70;4.87;;;8.60;99.90;;;;;;5078137;28;20904;-64
2022/02/02 09:44:09;;;;;;;13.63;5.00;;;8.60;99.90;;;;;;5078563;28;20498;-64
2022/02/02 09:46:46;;;;;;;14.67;3.90;;;8.80;99.90;;;;;;5078029;28;20460;-64
2022/02/02 09:49:19;;;;;;;14.60;4.40;;;9.00;99.90;;;;;;5077670;28;20451;-64
2022/02/02 09:51:53;;;;;;;11.30;4.50;;;9.00;99.90;;;;;;5079003;28;20447;-64
2022/02/02 09:54:24;;;;;;;10.13;3.93;;;9.10;99.90;;;;;;5077676;28;20503;-64
2022/02/02 09:59:55;;;;;;;14.10;5.50;;;9.50;99.90;;;;;;5071931;28;20439;-64
2022/02/02 10:02:37;;;;;;;14.53;4.47;;;9.60;99.90;;;;;;5079012;28;20451;-63
2022/02/02 10:05:12;;;;;;;9.77;4.50;;;9.70;99.90;;;;;;5077478;28;20447;-64
2022/02/02 10:08:07;;;;;;;14.83;4.70;;;9.70;99.90;;;;;;5078443;28;20469;-63
2022/02/02 10:13:49;;;;;;;9.70;3.80;;;9.60;99.90;;;;;;5077731;28;20487;-63
2022/02/02 10:16:17;;;;;;;8.90;3.80;;;9.60;99.90;;;;;;5077093;28;20439;-63
2022/02/02 10:18:44;;;;;;;13.53;4.20;;;9.60;99.90;;;;;;5077025;28;20443;-63
2022/02/02 10:21:11;;;;;;;10.27;4.00;;;9.50;99.90;;;;;;5076236;28;20449;-63
2022/02/02 10:23:39;;;;;;;11.20;4.67;;;9.40;99.90;;;;;;5077372;28;20471;-63
2022/02/02 10:26:18;;;;;;;14.73;4.40;;;9.40;99.90;;;;;;5077583;28;20451;-63
2022/02/02 10:28:47;;;;;;;11.53;3.93;;;9.60;99.90;;;;;;5075758;28;20451;-64
2022/02/02 10:31:14;;;;;;;12.00;5.30;;;9.60;99.90;;;;;;5075912;28;20471;-63
2022/02/02 10:33:42;;;;;;;8.93;3.77;;;9.50;99.90;;;;;;5076501;28;20578;-63
2022/02/02 10:36:14;;;;;;;11.73;4.40;;;9.40;99.90;;;;;;5076364;28;20534;-63
2022/02/02 10:38:48;;;;;;;10.50;4.90;;;9.30;99.90;;;;;;5076779;28;20467;-64
2022/02/02 10:41:25;;;;;;;10.53;4.27;;;9.30;99.90;;;;;;5076627;28;20475;-64
2022/02/02 10:43:57;;;;;;;10.40;3.47;;;9.30;99.90;;;;;;5076356;28;20463;-63
2022/02/02 10:46:30;;;;;;;13.13;4.80;;;9.30;99.90;;;;;;5073672;28;20451;-63
2022/02/02 10:49:10;;;;;;;8.27;4.63;;;9.30;99.90;;;;;;5073046;28;20444;-64
2022/02/02 10:51:41;;;;;;;12.20;4.07;;;9.20;99.90;;;;;;5073141;28;20483;-63
2022/02/02 10:57:16;;;;;;;11.87;4.33;;;9.20;99.90;;;;;;5067512;28;20428;-63
2022/02/02 11:00:02;;;;;;;9.43;3.90;;;9.30;99.90;;;;;;5071411;28;20509;-62
2022/02/02 11:08:14;;;;;;;15.73;5.93;;;9.90;99.90;;;;;;5010260;28;20434;-63
2022/02/02 11:10:41;;;;;;;15.30;3.97;;;9.70;99.90;;;;;;5010431;28;20450;-63
2022/02/02 11:13:11;;;;;;;13.47;5.03;;;9.60;99.90;;;;;;5037787;28;20475;-63
2022/02/02 11:15:45;;;;;;;11.00;4.17;;;9.50;99.90;;;;;;5071436;28;20451;-63
2022/02/02 11:18:17;;;;;;;13.60;2.90;;;9.60;99.90;;;;;;5071529;28;20447;-63
2022/02/02 11:20:45;;;;;;;11.30;3.90;;;9.60;99.90;;;;;;5071624;28;20973;-63
2022/02/02 11:23:12;;;;;;;12.90;4.57;;;9.90;99.90;;;;;;5071650;28;20909;-63
2022/02/02 11:25:49;;;;;;;13.10;3.93;;;9.90;99.90;;;;;;5071361;28;20443;-63
2022/02/02 11:28:33;;;;;;;14.23;3.90;;;9.90;99.90;;;;;;5071534;28;20444;-64
2022/02/02 11:31:14;;;;;;;9.73;3.90;;;9.80;99.90;;;;;;5072186;28;20470;-63
2022/02/02 11:33:51;;;;;;;10.13;3.77;;;9.70;99.90;;;;;;5071257;28;20479;-63
2022/02/02 11:36:32;;;;;;;10.67;4.27;;;9.80;99.90;;;;;;5071496;28;20524;-63
2022/02/02 11:39:01;;;;;;;11.37;4.43;;;9.80;99.90;;;;;;5071630;28;20457;-63
2022/02/02 11:44:24;;;;;;;11.07;4.53;;;9.60;99.90;;;;;;5073476;28;20464;-64
2022/02/02 11:47:05;;;;;;;10.13;4.20;;;9.70;99.90;;;;;;5073099;28;20450;-63
2022/02/02 11:49:50;;;;;;;12.30;4.73;;;9.70;99.90;;;;;;5072393;28;20443;-63
2022/02/02 11:52:38;;;;;;;9.17;4.20;;;9.90;99.90;;;;;;5070629;28;20939;-64
2022/02/02 11:55:08;;;;;;;10.80;3.70;;;9.90;99.90;;;;;;5071894;28;20559;-63
2022/02/02 11:57:53;;;;;;;9.37;3.70;;;9.90;99.90;;;;;;5071571;28;21021;-63
2022/02/02 12:00:30;;;;;;;10.20;4.60;;;9.90;99.90;;;;;;5071913;28;20459;-64
2022/02/02 12:06:10;;;;;;;14.03;3.90;;;9.70;99.90;;;;;;5035776;28;20443;-63
2022/02/02 12:08:47;;;;;;;7.73;3.87;;;9.60;99.90;;;;;;5073793;28;20506;-62
2022/02/02 12:47:58;;;;;;;10.60;4.50;;;9.80;99.90;;;;;;5134277;28;20421;-63
2022/02/02 12:53:33;;;;;;;8.23;3.37;;;9.70;99.90;;;;;;5134947;28;20855;-62
2022/02/02 12:53:49;;;;;;;15.43;4.30;;;9.60;99.90;;;;;;5135770;27;20480;-63
2022/02/02 12:56:24;;;;;;;12.00;3.87;;;9.60;99.90;;;;;;5136706;28;20981;-63
2022/02/02 12:59:12;;;;;;;17.57;3.93;;;9.50;99.90;;;;;;5136339;28;20453;-63
2022/02/02 13:01:39;;;;;;;14.03;4.70;;;9.40;99.90;;;;;;5111689;28;20451;-62
2022/02/02 13:04:09;;;;;;;17.53;4.63;;;9.30;99.90;;;;;;5104326;28;20449;-63
2022/02/02 13:06:41;;;;;;;11.70;4.40;;;9.10;99.90;;;;;;5113490;28;20457;-62
2022/02/02 13:09:08;;;;;;;21.53;6.07;;;8.80;99.90;;;;;;5116983;28;20460;-60
2022/02/02 13:11:37;;;;;;;15.30;5.60;;;8.40;99.90;;;;;;5117705;28;20532;-62
2022/02/02 13:14:11;;;;;;;13.23;5.50;;;8.20;99.90;;;;;;5118191;28;20497;-61
2022/02/02 13:16:38;;;;;;;17.23;4.77;;;8.10;99.90;;;;;;5117982;28;20547;-62
2022/02/02 13:19:18;;;;;;;11.07;4.53;;;8.00;99.90;;;;;;5117487;28;20473;-62
2022/02/02 13:21:52;;;;;;;13.90;5.40;;;7.90;99.90;;;;;;5118600;28;21326;-62
2022/02/02 13:24:25;;;;;;;10.50;5.20;;;7.90;99.90;;;;;;5111707;28;20474;-61
2022/02/02 13:27:04;;;;;;;14.47;4.47;;;7.90;99.90;;;;;;5103797;28;20871;-63
2022/02/02 13:29:37;;;;;;;11.40;5.17;;;7.90;99.90;;;;;;5102954;28;20435;-61
2022/02/02 13:32:10;;;;;;;14.63;5.80;;;7.90;99.90;;;;;;5102277;28;20521;-62
2022/02/02 13:34:48;;;;;;;18.07;6.37;;;8.00;99.90;;;;;;5102273;28;20482;-62
2022/02/02 13:46:12;;;;;;;17.93;7.83;;;8.10;99.90;;;;;;5061445;28;20464;-62
2022/02/02 13:49:11;;;;;;;13.20;4.80;;;8.20;99.90;;;;;;5089526;28;20516;-62
2022/02/02 13:51:54;;;;;;;13.30;5.60;;;8.30;99.90;;;;;;5084820;28;21129;-62
2022/02/02 13:54:42;;;;;;;13.90;4.20;;;8.40;99.90;;;;;;5096359;28;21223;-62
2022/02/02 14:11:48;;;;;;;13.20;3.97;;;9.10;99.90;;;;;;5052280;28;20431;-62
2022/02/02 14:31:09;;;;;;;10.53;4.10;;;9.00;99.90;;;;;;5090372;28;20881;-62
2022/02/02 14:33:36;;;;;;;7.50;3.03;;;9.20;99.90;;;;;;5089607;28;20490;-62
2022/02/02 14:36:06;;;;;;;11.37;5.00;;;9.30;99.90;;;;;;5088904;28;20773;-62
2022/02/02 14:38:39;;;;;;;9.07;4.37;;;9.40;99.90;;;;;;5089566;28;20450;-62
2022/02/02 14:41:15;;;;;;;9.57;3.90;;;9.60;99.90;;;;;;5092307;28;20842;-62
2022/02/02 14:43:49;;;;;;;5.80;3.33;;;9.60;99.90;;;;;;5092825;28;20510;-62
2022/02/02 14:46:19;;;;;;;10.10;4.10;;;9.70;99.90;;;;;;5093129;28;20450;-63
2022/02/02 14:48:51;;;;;;;9.40;3.87;;;9.60;99.90;;;;;;5093483;28;20447;-63
2022/02/02 14:51:29;;;;;;;8.20;3.70;;;9.30;99.90;;;;;;5094941;28;21220;-63
2022/02/02 14:54:04;;;;;;;14.17;4.93;;;9.20;99.90;;;;;;5094253;28;20540;-62
2022/02/02 15:05:17;;;;;;;11.10;4.40;;;9.20;99.90;;;;;;5095061;28;20449;-63
2022/02/02 15:05:35;;;;;;;10.00;4.60;;;8.70;99.90;;;;;;5078016;28;20419;-63
2022/02/02 15:27:29;;;;;;;9.80;5.20;;;8.40;99.90;;;;;;5070296;28;20530;-64
2022/02/02 15:30:10;;;;;;;9.17;4.80;;;8.40;99.90;;;;;;5086340;28;20442;-64
2022/02/02 15:32:41;;;;;;;12.63;3.60;;;8.40;99.90;;;;;;5084447;28;20565;-63
2022/02/02 15:35:09;;;;;;;11.00;4.37;;;8.30;99.90;;;;;;5079629;28;21040;-64
2022/02/02 15:37:41;;;;;;;7.63;3.60;;;8.20;99.90;;;;;;5093060;28;20521;-63
2022/02/02 15:40:12;;;;;;;10.67;3.50;;;8.20;99.90;;;;;;5090935;28;20478;-63
2022/02/02 15:42:52;;;;;;;9.93;3.90;;;8.20;99.90;;;;;;5090340;28;20454;-63
2022/02/02 15:59:13;;;;;;;9.03;3.47;;;7.80;99.90;;;;;;5079917;28;20423;-63
2022/02/02 16:04:32;;;;;;;7.23;3.17;;;7.70;99.90;;;;;;5076786;28;20968;-63
2022/02/02 16:07:02;;;;;;;6.40;3.30;;;7.70;99.90;;;;;;5090048;28;20503;-63
2022/02/02 16:09:37;;;;;;;10.80;3.30;;;7.60;99.90;;;;;;5077816;28;20495;-63
2022/02/02 16:12:09;;;;;;;6.40;3.47;;;7.60;99.90;;;;;;5083957;28;20447;-65
2022/02/02 16:14:42;;;;;;;8.20;3.50;;;7.50;99.90;;;;;;5081041;28;20485;-63
2022/02/02 16:17:22;;;;;;;9.67;4.80;;;7.40;99.90;;;;;;5079083;28;20551;-63
2022/02/02 16:25:36;;;;;;;7.90;3.90;;;7.30;99.90;;;;;;5074142;28;20430;-62
2022/02/02 16:36:20;;;;;;;6.60;3.80;;;7.20;99.90;;;;;;5072033;28;20896;-62
2022/02/02 16:38:58;;;;;;;6.13;3.67;;;7.20;99.90;;;;;;5088132;28;20959;-63
2022/02/02 16:44:24;;;;;;;8.30;4.50;;;7.10;99.90;;;;;;5011240;28;20458;-62
2022/02/02 16:46:52;;;;;;;8.83;3.80;;;7.10;99.90;;;;;;5017540;28;20449;-63
2022/02/02 16:49:21;;;;;;;5.70;3.20;;;7.10;99.90;;;;;;5045573;28;20921;-63
2022/02/02 16:51:48;;;;;;;8.73;3.30;;;7.10;99.90;;;;;;5077268;28;20436;-63
2022/02/02 16:54:21;;;;;;;8.73;3.80;;;7.10;99.90;;;;;;5081085;28;20474;-62
2022/02/02 16:57:08;;;;;;;8.33;3.50;;;7.20;99.90;;;;;;5074085;28;20488;-62
2022/02/02 17:24:40;;;;;;;7.20;2.80;;;7.30;99.90;;;;;;5085676;28;20476;-62
2022/02/02 17:30:22;;;;;;;5.40;3.20;;;7.40;99.90;;;;;;5090979;28;20897;-63
2022/02/02 17:32:54;;;;;;;6.63;3.30;;;7.30;99.90;;;;;;5090541;28;20473;-63
2022/02/02 17:35:32;;;;;;;8.30;3.80;;;7.30;99.90;;;;;;5091736;28;20431;-63
2022/02/02 17:38:08;;;;;;;6.50;4.53;;;7.30;99.90;;;;;;5089071;28;20474;-63
2022/02/02 17:40:58;;;;;;;5.33;3.83;;;7.30;99.90;;;;;;5089418;28;20446;-63
2022/02/02 18:19:11;;;;;;;6.60;4.20;;;7.30;99.90;;;;;;5031083;28;20463;-64
2022/02/02 18:21:38;;;;;;;7.23;3.60;;;7.30;99.90;;;;;;5089971;28;20477;-63
2022/02/02 18:24:11;;;;;;;5.30;3.93;;;7.30;99.90;;;;;;5090241;28;20549;-63
2022/02/02 18:26:44;;;;;;;6.53;4.23;;;7.30;99.90;;;;;;5091852;28;20453;-63
2022/02/02 18:29:16;;;;;;;5.77;4.37;;;7.40;99.90;;;;;;5091570;28;20450;-64
2022/02/02 18:32:10;;;;;;;9.93;5.53;;;7.40;99.90;;;;;;5090789;28;20481;-63
2022/02/02 18:34:44;;;;;;;5.93;3.90;;;7.40;99.90;;;;;;5087822;28;20475;-63
2022/02/02 18:38:08;;;;;;;4.70;4.13;;;7.40;99.90;;;;;;5090184;28;20435;-62
2022/02/02 18:46:28;;;;;;;6.30;4.20;;;7.40;99.90;;;;;;5028630;28;20422;-64
2022/02/02 18:49:01;;;;;;;5.47;3.87;;;7.40;99.90;;;;;;5088446;28;20454;-63
2022/02/02 18:51:57;;;;;;;5.90;4.13;;;7.40;99.90;;;;;;5090537;28;20434;-62
2022/02/02 18:54:36;;;;;;;5.43;4.20;;;7.40;99.90;;;;;;5091698;28;20539;-62
2022/02/02 19:02:48;;;;;;;4.90;4.40;;;7.30;99.90;;;;;;5095540;28;20442;-63
2022/02/02 19:05:31;;;;;;;6.40;4.53;;;7.30;99.90;;;;;;5094872;28;20443;-63
2022/02/02 19:08:11;;;;;;;6.83;4.93;;;7.20;99.90;;;;;;5093752;28;20454;-64
2022/02/02 19:38:57;;;;;;;9.33;5.67;;;6.00;99.90;;;;;;5092682;28;20417;-62
2022/02/02 19:52:32;;;;;;;7.10;6.00;;;5.70;99.90;;;;;;5086852;28;21105;-64
2022/02/02 20:06:22;;;;;;;11.43;6.10;;;5.50;99.90;;;;;;5082844;28;20457;-64
2022/02/02 20:09:18;;;;;;;6.90;5.63;;;5.50;99.90;;;;;;5080203;28;20446;-63
2022/02/02 20:11:40;;;;;;;6.20;5.20;;;5.40;99.90;;;;;;5082908;28;20427;-64
2022/02/02 20:14:08;;;;;;;7.73;5.60;;;5.30;99.90;;;;;;5081105;28;20513;-63
2022/02/02 20:16:35;;;;;;;7.17;5.60;;;5.20;99.90;;;;;;5083678;28;20943;-63
2022/02/02 20:19:06;;;;;;;6.53;5.30;;;5.20;99.90;;;;;;5082283;28;20537;-64
2022/02/02 20:21:37;;;;;;;8.07;7.00;;;5.10;99.90;;;;;;5082513;28;20462;-64
2022/02/02 20:24:07;;;;;;;8.93;6.93;;;5.10;99.90;;;;;;5083168;28;20466;-63
2022/02/02 20:26:36;;;;;;;10.37;6.77;;;5.10;99.90;;;;;;5081711;28;20527;-63
2022/02/02 20:29:03;;;;;;;7.53;5.90;;;5.10;99.90;;;;;;5083768;28;21373;-64
2022/02/02 20:31:32;;;;;;;7.70;6.60;;;5.10;99.90;;;;;;5083152;28;20525;-64
2022/02/02 20:33:59;;;;;;;10.03;6.60;;;5.10;99.90;;;;;;5083874;28;21129;-65
2022/02/02 20:36:26;;;;;;;8.27;6.07;;;5.10;99.90;;;;;;5087825;28;20454;-64
2022/02/02 20:38:55;;;;;;;12.40;7.50;;;5.20;99.90;;;;;;5088788;28;20816;-63
2022/02/02 20:41:21;;;;;;;11.07;7.73;;;5.20;99.90;;;;;;5089245;28;20465;-64
2022/02/02 20:43:54;;;;;;;9.20;7.47;;;5.20;99.90;;;;;;5089237;28;20485;-62
2022/02/02 20:46:38;;;;;;;10.10;8.10;;;5.30;99.90;;;;;;5089538;28;20431;-64
2022/02/02 21:00:29;;;;;;;11.07;9.23;;;5.10;99.90;;;;;;5088589;28;20446;-64
2022/02/02 21:05:54;;;;;;;10.13;8.20;;;5.20;99.90;;;;;;5088671;28;20501;-64
2022/02/02 21:08:36;;;;;;;9.47;7.97;;;5.30;99.90;;;;;;5089080;28;20443;-64
2022/02/02 21:11:15;;;;;;;11.30;8.63;;;5.30;99.90;;;;;;5089047;28;20445;-63
2022/02/02 21:13:44;;;;;;;8.90;7.27;;;5.30;99.90;;;;;;5088074;28;21235;-63